sensor_id;sensor_type;location;lat;lon;timestamp;temperature;humidity
71188;DHT22;58893;53.130;8.158;2023-02-21T00:01:15;12.20;98.60
71188;DHT22;58893;53.130;8.158;2023-02-21T00:03:59;12.20;98.50
71188;DHT22;58893;53.130;8.158;2023-02-21T00:06:44;12.20;98.50
71188;DHT22;58893;53.130;8.158;2023-02-21T00:09:29;12.20;98.30
71188;DHT22;58893;53.130;8.158;2023-02-21T00:12:13;12.20;98.30
71188;DHT22;58893;53.130;8.158;2023-02-21T00:14:57;12.20;98.30
71188;DHT22;58893;53.130;8.158;2023-02-21T00:17:41;12.20;98.10
71188;DHT22;58893;53.130;8.158;2023-02-21T00:20:25;12.20;98.00
71188;DHT22;58893;53.130;8.158;2023-02-21T00:23:09;12.20;98.00
71188;DHT22;58893;53.130;8.158;2023-02-21T00:25:53;12.20;97.80
71188;DHT22;58893;53.130;8.158;2023-02-21T00:28:37;12.20;97.80
71188;DHT22;58893;53.130;8.158;2023-02-21T00:31:21;12.20;97.70
71188;DHT22;58893;53.130;8.158;2023-02-21T00:34:06;12.20;97.60
71188;DHT22;58893;53.130;8.158;2023-02-21T00:36:52;12.30;97.60
71188;DHT22;58893;53.130;8.158;2023-02-21T00:39:36;12.30;97.40
71188;DHT22;58893;53.130;8.158;2023-02-21T00:42:20;12.30;97.40
71188;DHT22;58893;53.130;8.158;2023-02-21T00:45:04;12.30;97.20
71188;DHT22;58893;53.130;8.158;2023-02-21T00:47:48;12.30;97.10
71188;DHT22;58893;53.130;8.158;2023-02-21T00:50:32;12.30;97.10
71188;DHT22;58893;53.130;8.158;2023-02-21T00:53:16;12.30;97.10
71188;DHT22;58893;53.130;8.158;2023-02-21T00:56:00;12.40;97.00
71188;DHT22;58893;53.130;8.158;2023-02-21T00:58:44;12.40;97.00
71188;DHT22;58893;53.130;8.158;2023-02-21T01:01:28;12.40;97.00
71188;DHT22;58893;53.130;8.158;2023-02-21T01:04:12;12.40;97.00
71188;DHT22;58893;53.130;8.158;2023-02-21T01:06:56;12.40;97.00
71188;DHT22;58893;53.130;8.158;2023-02-21T01:09:40;12.40;97.10
71188;DHT22;58893;53.130;8.158;2023-02-21T01:12:25;12.40;97.10
71188;DHT22;58893;53.130;8.158;2023-02-21T01:15:09;12.40;97.20
71188;DHT22;58893;53.130;8.158;2023-02-21T01:17:53;12.30;97.20
71188;DHT22;58893;53.130;8.158;2023-02-21T01:20:37;12.30;97.20
71188;DHT22;58893;53.130;8.158;2023-02-21T01:23:21;12.30;97.20
71188;DHT22;58893;53.130;8.158;2023-02-21T01:26:08;12.30;97.30
71188;DHT22;58893;53.130;8.158;2023-02-21T01:28:52;12.30;97.30
71188;DHT22;58893;53.130;8.158;2023-02-21T01:31:36;12.40;97.40
71188;DHT22;58893;53.130;8.158;2023-02-21T01:34:20;12.30;97.40
71188;DHT22;58893;53.130;8.158;2023-02-21T01:37:04;12.30;97.40
71188;DHT22;58893;53.130;8.158;2023-02-21T01:39:48;12.30;97.50
71188;DHT22;58893;53.130;8.158;2023-02-21T01:42:32;12.30;97.50
71188;DHT22;58893;53.130;8.158;2023-02-21T01:48:09;12.30;97.60
71188;DHT22;58893;53.130;8.158;2023-02-21T01:50:55;12.30;97.60
71188;DHT22;58893;53.130;8.158;2023-02-21T01:53:41;12.30;97.70
71188;DHT22;58893;53.130;8.158;2023-02-21T01:56:25;12.30;97.70
71188;DHT22;58893;53.130;8.158;2023-02-21T01:59:10;12.30;97.80
71188;DHT22;58893;53.130;8.158;2023-02-21T02:02:00;12.30;98.10
71188;DHT22;58893;53.130;8.158;2023-02-21T02:04:46;12.30;97.90
71188;DHT22;58893;53.130;8.158;2023-02-21T02:07:31;12.30;97.90
71188;DHT22;58893;53.130;8.158;2023-02-21T02:10:16;12.30;98.00
71188;DHT22;58893;53.130;8.158;2023-02-21T02:18:53;12.30;98.20
71188;DHT22;58893;53.130;8.158;2023-02-21T02:29:47;12.30;98.40
71188;DHT22;58893;53.130;8.158;2023-02-21T02:35:10;12.30;98.40
71188;DHT22;58893;53.130;8.158;2023-02-21T02:43:29;12.30;98.40
71188;DHT22;58893;53.130;8.158;2023-02-21T02:46:03;12.30;98.40
71188;DHT22;58893;53.130;8.158;2023-02-21T02:48:33;12.30;98.40
71188;DHT22;58893;53.130;8.158;2023-02-21T02:51:02;12.30;98.50
71188;DHT22;58893;53.130;8.158;2023-02-21T02:53:29;12.30;98.50
71188;DHT22;58893;53.130;8.158;2023-02-21T02:56:06;12.30;98.60
71188;DHT22;58893;53.130;8.158;2023-02-21T02:58:53;12.30;98.70
71188;DHT22;58893;53.130;8.158;2023-02-21T03:09:55;12.30;99.10
71188;DHT22;58893;53.130;8.158;2023-02-21T03:15:27;12.30;99.30
71188;DHT22;58893;53.130;8.158;2023-02-21T03:18:01;12.30;99.30
71188;DHT22;58893;53.130;8.158;2023-02-21T03:20:29;12.20;99.40
71188;DHT22;58893;53.130;8.158;2023-02-21T03:22:57;12.30;99.50
71188;DHT22;58893;53.130;8.158;2023-02-21T03:25:26;12.20;99.60
71188;DHT22;58893;53.130;8.158;2023-02-21T03:27:54;12.30;99.70
71188;DHT22;58893;53.130;8.158;2023-02-21T03:30:20;12.20;99.70
71188;DHT22;58893;53.130;8.158;2023-02-21T03:32:51;12.20;99.70
71188;DHT22;58893;53.130;8.158;2023-02-21T03:35:18;12.20;99.70
71188;DHT22;58893;53.130;8.158;2023-02-21T03:37:49;12.20;99.70
71188;DHT22;58893;53.130;8.158;2023-02-21T03:40:28;12.20;99.80
71188;DHT22;58893;53.130;8.158;2023-02-21T03:42:56;12.20;99.80
71188;DHT22;58893;53.130;8.158;2023-02-21T03:45:22;12.20;99.80
71188;DHT22;58893;53.130;8.158;2023-02-21T03:47:47;12.20;99.80
71188;DHT22;58893;53.130;8.158;2023-02-21T03:50:13;12.20;99.80
71188;DHT22;58893;53.130;8.158;2023-02-21T03:52:39;12.20;99.90
71188;DHT22;58893;53.130;8.158;2023-02-21T03:55:06;12.20;99.90
71188;DHT22;58893;53.130;8.158;2023-02-21T03:57:32;12.20;99.90
71188;DHT22;58893;53.130;8.158;2023-02-21T03:59:57;12.20;99.90
71188;DHT22;58893;53.130;8.158;2023-02-21T04:02:23;12.20;99.90
71188;DHT22;58893;53.130;8.158;2023-02-21T04:04:49;12.30;99.90
71188;DHT22;58893;53.130;8.158;2023-02-21T04:07:19;12.20;99.90
71188;DHT22;58893;53.130;8.158;2023-02-21T04:09:46;12.20;99.90
71188;DHT22;58893;53.130;8.158;2023-02-21T04:12:12;12.20;99.90
71188;DHT22;58893;53.130;8.158;2023-02-21T04:14:37;12.20;99.90
71188;DHT22;58893;53.130;8.158;2023-02-21T04:17:03;12.20;99.90
71188;DHT22;58893;53.130;8.158;2023-02-21T04:19:29;12.20;99.90
71188;DHT22;58893;53.130;8.158;2023-02-21T04:21:55;12.20;99.90
71188;DHT22;58893;53.130;8.158;2023-02-21T04:24:20;12.20;99.90
71188;DHT22;58893;53.130;8.158;2023-02-21T04:26:46;12.20;99.90
71188;DHT22;58893;53.130;8.158;2023-02-21T04:29:11;12.20;99.90
71188;DHT22;58893;53.130;8.158;2023-02-21T04:31:37;12.20;99.90
71188;DHT22;58893;53.130;8.158;2023-02-21T04:34:04;12.20;99.90
71188;DHT22;58893;53.130;8.158;2023-02-21T04:36:30;12.20;99.90
71188;DHT22;58893;53.130;8.158;2023-02-21T04:38:55;12.20;99.90
71188;DHT22;58893;53.130;8.158;2023-02-21T04:41:22;12.20;99.80
71188;DHT22;58893;53.130;8.158;2023-02-21T04:43:48;12.20;99.80
71188;DHT22;58893;53.130;8.158;2023-02-21T04:46:15;12.20;99.80
71188;DHT22;58893;53.130;8.158;2023-02-21T04:48:45;12.20;99.80
71188;DHT22;58893;53.130;8.158;2023-02-21T04:51:13;12.20;99.80
71188;DHT22;58893;53.130;8.158;2023-02-21T04:53:39;12.20;99.80
71188;DHT22;58893;53.130;8.158;2023-02-21T04:56:05;12.20;99.80
71188;DHT22;58893;53.130;8.158;2023-02-21T04:58:31;12.20;99.80
71188;DHT22;58893;53.130;8.158;2023-02-21T05:00:56;12.20;99.80
71188;DHT22;58893;53.130;8.158;2023-02-21T05:03:22;12.20;99.80
71188;DHT22;58893;53.130;8.158;2023-02-21T05:05:49;12.20;99.80
71188;DHT22;58893;53.130;8.158;2023-02-21T05:08:15;12.20;99.80
71188;DHT22;58893;53.130;8.158;2023-02-21T05:10:40;12.20;99.80
71188;DHT22;58893;53.130;8.158;2023-02-21T05:13:06;12.20;99.80
71188;DHT22;58893;53.130;8.158;2023-02-21T05:15:33;12.20;99.70
71188;DHT22;58893;53.130;8.158;2023-02-21T05:17:59;12.20;99.70
71188;DHT22;58893;53.130;8.158;2023-02-21T05:20:24;12.20;99.70
71188;DHT22;58893;53.130;8.158;2023-02-21T05:22:50;12.20;99.70
71188;DHT22;58893;53.130;8.158;2023-02-21T05:25:18;12.20;99.70
71188;DHT22;58893;53.130;8.158;2023-02-21T05:27:44;12.20;99.90
71188;DHT22;58893;53.130;8.158;2023-02-21T05:30:12;12.20;99.80
71188;DHT22;58893;53.130;8.158;2023-02-21T05:32:38;12.20;99.90
71188;DHT22;58893;53.130;8.158;2023-02-21T05:35:04;12.20;99.90
71188;DHT22;58893;53.130;8.158;2023-02-21T05:37:30;12.20;99.90
71188;DHT22;58893;53.130;8.158;2023-02-21T05:39:55;12.20;99.90
71188;DHT22;58893;53.130;8.158;2023-02-21T05:42:22;12.20;99.90
71188;DHT22;58893;53.130;8.158;2023-02-21T05:44:47;12.20;99.90
71188;DHT22;58893;53.130;8.158;2023-02-21T05:47:14;12.20;99.90
71188;DHT22;58893;53.130;8.158;2023-02-21T05:49:40;12.20;99.80
71188;DHT22;58893;53.130;8.158;2023-02-21T05:52:07;12.20;99.80
71188;DHT22;58893;53.130;8.158;2023-02-21T05:54:35;12.20;99.80
71188;DHT22;58893;53.130;8.158;2023-02-21T05:57:00;12.20;99.70
71188;DHT22;58893;53.130;8.158;2023-02-21T05:59:26;12.20;99.70
71188;DHT22;58893;53.130;8.158;2023-02-21T06:01:52;12.20;99.60
71188;DHT22;58893;53.130;8.158;2023-02-21T06:04:17;12.20;99.50
71188;DHT22;58893;53.130;8.158;2023-02-21T06:06:43;12.20;99.50
71188;DHT22;58893;53.130;8.158;2023-02-21T06:09:09;12.20;99.70
71188;DHT22;58893;53.130;8.158;2023-02-21T06:11:36;12.20;99.40
71188;DHT22;58893;53.130;8.158;2023-02-21T06:14:04;12.30;99.30
71188;DHT22;58893;53.130;8.158;2023-02-21T06:16:35;12.30;99.20
71188;DHT22;58893;53.130;8.158;2023-02-21T06:19:02;12.30;99.20
71188;DHT22;58893;53.130;8.158;2023-02-21T06:21:27;12.30;99.10
71188;DHT22;58893;53.130;8.158;2023-02-21T06:23:54;12.30;98.90
71188;DHT22;58893;53.130;8.158;2023-02-21T06:26:20;12.30;98.90
71188;DHT22;58893;53.130;8.158;2023-02-21T06:28:47;12.30;98.80
71188;DHT22;58893;53.130;8.158;2023-02-21T06:31:13;12.30;98.80
71188;DHT22;58893;53.130;8.158;2023-02-21T06:33:39;12.20;98.80
71188;DHT22;58893;53.130;8.158;2023-02-21T06:36:06;12.20;98.70
71188;DHT22;58893;53.130;8.158;2023-02-21T06:38:33;12.30;98.80
71188;DHT22;58893;53.130;8.158;2023-02-21T06:40:59;12.20;98.80
71188;DHT22;58893;53.130;8.158;2023-02-21T06:43:25;12.20;98.70
71188;DHT22;58893;53.130;8.158;2023-02-21T06:45:51;12.20;98.70
71188;DHT22;58893;53.130;8.158;2023-02-21T06:48:17;12.20;98.70
71188;DHT22;58893;53.130;8.158;2023-02-21T06:50:43;12.20;98.70
71188;DHT22;58893;53.130;8.158;2023-02-21T06:53:08;12.20;98.70
71188;DHT22;58893;53.130;8.158;2023-02-21T06:55:34;12.20;98.70
71188;DHT22;58893;53.130;8.158;2023-02-21T06:58:00;12.20;98.70
71188;DHT22;58893;53.130;8.158;2023-02-21T07:00:25;12.20;98.60
71188;DHT22;58893;53.130;8.158;2023-02-21T07:02:52;12.30;98.70
71188;DHT22;58893;53.130;8.158;2023-02-21T07:05:18;12.30;98.60
71188;DHT22;58893;53.130;8.158;2023-02-21T07:07:44;12.30;98.60
71188;DHT22;58893;53.130;8.158;2023-02-21T07:10:10;12.30;98.50
71188;DHT22;58893;53.130;8.158;2023-02-21T07:12:36;12.30;98.50
71188;DHT22;58893;53.130;8.158;2023-02-21T07:15:02;12.30;98.40
71188;DHT22;58893;53.130;8.158;2023-02-21T07:17:27;12.30;98.30
71188;DHT22;58893;53.130;8.158;2023-02-21T07:19:53;12.30;98.30
71188;DHT22;58893;53.130;8.158;2023-02-21T07:22:18;12.30;98.20
71188;DHT22;58893;53.130;8.158;2023-02-21T07:24:53;12.30;98.20
71188;DHT22;58893;53.130;8.158;2023-02-21T07:27:19;12.30;98.20
71188;DHT22;58893;53.130;8.158;2023-02-21T07:29:49;12.30;98.10
71188;DHT22;58893;53.130;8.158;2023-02-21T07:32:15;12.30;98.10
71188;DHT22;58893;53.130;8.158;2023-02-21T07:34:42;12.30;98.30
71188;DHT22;58893;53.130;8.158;2023-02-21T07:37:08;12.30;98.00
71188;DHT22;58893;53.130;8.158;2023-02-21T07:39:34;12.30;98.00
71188;DHT22;58893;53.130;8.158;2023-02-21T07:41:59;12.30;98.00
71188;DHT22;58893;53.130;8.158;2023-02-21T07:44:25;12.30;98.00
71188;DHT22;58893;53.130;8.158;2023-02-21T07:46:50;12.30;98.00
71188;DHT22;58893;53.130;8.158;2023-02-21T07:49:16;12.30;98.00
71188;DHT22;58893;53.130;8.158;2023-02-21T07:51:42;12.30;98.00
71188;DHT22;58893;53.130;8.158;2023-02-21T07:54:07;12.30;98.00
71188;DHT22;58893;53.130;8.158;2023-02-21T07:56:33;12.30;98.00
71188;DHT22;58893;53.130;8.158;2023-02-21T07:58:58;12.30;98.00
71188;DHT22;58893;53.130;8.158;2023-02-21T08:01:25;12.30;98.00
71188;DHT22;58893;53.130;8.158;2023-02-21T08:03:51;12.30;98.00
71188;DHT22;58893;53.130;8.158;2023-02-21T08:06:17;12.40;98.10
71188;DHT22;58893;53.130;8.158;2023-02-21T08:08:43;12.40;98.10
71188;DHT22;58893;53.130;8.158;2023-02-21T08:11:09;12.40;98.10
71188;DHT22;58893;53.130;8.158;2023-02-21T08:13:35;12.40;98.00
71188;DHT22;58893;53.130;8.158;2023-02-21T08:16:00;12.40;98.00
71188;DHT22;58893;53.130;8.158;2023-02-21T08:18:26;12.40;97.90
71188;DHT22;58893;53.130;8.158;2023-02-21T08:20:53;12.40;98.10
71188;DHT22;58893;53.130;8.158;2023-02-21T08:23:19;12.40;97.80
71188;DHT22;58893;53.130;8.158;2023-02-21T08:25:46;12.40;97.80
71188;DHT22;58893;53.130;8.158;2023-02-21T08:28:12;12.40;97.80
71188;DHT22;58893;53.130;8.158;2023-02-21T08:30:37;12.40;97.80
71188;DHT22;58893;53.130;8.158;2023-02-21T08:33:03;12.40;97.70
71188;DHT22;58893;53.130;8.158;2023-02-21T08:35:29;12.40;97.70
71188;DHT22;58893;53.130;8.158;2023-02-21T08:37:55;12.40;97.60
71188;DHT22;58893;53.130;8.158;2023-02-21T08:40:28;12.40;97.60
71188;DHT22;58893;53.130;8.158;2023-02-21T08:42:55;12.40;97.60
71188;DHT22;58893;53.130;8.158;2023-02-21T08:45:23;12.50;97.60
71188;DHT22;58893;53.130;8.158;2023-02-21T08:47:49;12.40;97.50
71188;DHT22;58893;53.130;8.158;2023-02-21T08:50:16;12.40;97.50
71188;DHT22;58893;53.130;8.158;2023-02-21T08:52:42;12.50;97.50
71188;DHT22;58893;53.130;8.158;2023-02-21T08:55:09;12.50;97.50
71188;DHT22;58893;53.130;8.158;2023-02-21T08:57:35;12.50;97.50
71188;DHT22;58893;53.130;8.158;2023-02-21T09:00:01;12.50;97.40
71188;DHT22;58893;53.130;8.158;2023-02-21T09:02:30;12.50;97.40
71188;DHT22;58893;53.130;8.158;2023-02-21T09:04:56;12.50;97.40
71188;DHT22;58893;53.130;8.158;2023-02-21T09:07:23;12.50;97.40
71188;DHT22;58893;53.130;8.158;2023-02-21T09:09:49;12.50;97.40
71188;DHT22;58893;53.130;8.158;2023-02-21T09:12:15;12.50;97.70
71188;DHT22;58893;53.130;8.158;2023-02-21T09:14:41;12.50;97.40
71188;DHT22;58893;53.130;8.158;2023-02-21T09:17:09;12.50;97.40
71188;DHT22;58893;53.130;8.158;2023-02-21T09:19:35;12.50;97.40
71188;DHT22;58893;53.130;8.158;2023-02-21T09:22:01;12.50;97.30
71188;DHT22;58893;53.130;8.158;2023-02-21T09:24:29;12.50;97.30
71188;DHT22;58893;53.130;8.158;2023-02-21T09:26:56;12.50;97.30
71188;DHT22;58893;53.130;8.158;2023-02-21T09:29:33;12.60;97.30
71188;DHT22;58893;53.130;8.158;2023-02-21T09:31:59;12.60;97.30
71188;DHT22;58893;53.130;8.158;2023-02-21T09:34:26;12.60;97.30
71188;DHT22;58893;53.130;8.158;2023-02-21T09:36:52;12.60;97.30
71188;DHT22;58893;53.130;8.158;2023-02-21T09:39:20;12.60;97.20
71188;DHT22;58893;53.130;8.158;2023-02-21T09:41:46;12.60;97.20
71188;DHT22;58893;53.130;8.158;2023-02-21T09:44:24;12.60;97.20
71188;DHT22;58893;53.130;8.158;2023-02-21T09:46:55;12.60;97.20
71188;DHT22;58893;53.130;8.158;2023-02-21T09:49:39;12.60;97.20
71188;DHT22;58893;53.130;8.158;2023-02-21T09:52:09;12.60;97.20
71188;DHT22;58893;53.130;8.158;2023-02-21T09:54:45;12.60;97.20
71188;DHT22;58893;53.130;8.158;2023-02-21T09:57:14;12.60;97.20
71188;DHT22;58893;53.130;8.158;2023-02-21T09:59:40;12.70;97.50
71188;DHT22;58893;53.130;8.158;2023-02-21T10:05:32;12.70;97.20
71188;DHT22;58893;53.130;8.158;2023-02-21T10:08:36;12.70;97.20
71188;DHT22;58893;53.130;8.158;2023-02-21T10:11:45;12.70;97.10
71188;DHT22;58893;53.130;8.158;2023-02-21T10:17:32;12.70;97.00
71188;DHT22;58893;53.130;8.158;2023-02-21T10:20:04;12.70;97.00
71188;DHT22;58893;53.130;8.158;2023-02-21T10:22:34;12.70;97.00
71188;DHT22;58893;53.130;8.158;2023-02-21T10:27:45;12.70;96.80
71188;DHT22;58893;53.130;8.158;2023-02-21T10:30:19;12.70;96.80
71188;DHT22;58893;53.130;8.158;2023-02-21T10:32:48;12.80;96.80
71188;DHT22;58893;53.130;8.158;2023-02-21T10:35:14;12.80;96.80
71188;DHT22;58893;53.130;8.158;2023-02-21T10:37:44;12.80;97.00
71188;DHT22;58893;53.130;8.158;2023-02-21T10:40:35;12.80;96.70
71188;DHT22;58893;53.130;8.158;2023-02-21T10:45:40;12.80;96.60
71188;DHT22;58893;53.130;8.158;2023-02-21T10:48:11;12.80;96.60
71188;DHT22;58893;53.130;8.158;2023-02-21T10:50:50;12.80;96.50
71188;DHT22;58893;53.130;8.158;2023-02-21T10:59:03;12.90;96.30
71188;DHT22;58893;53.130;8.158;2023-02-21T11:01:44;12.90;96.30
71188;DHT22;58893;53.130;8.158;2023-02-21T11:07:03;12.90;96.20
71188;DHT22;58893;53.130;8.158;2023-02-21T11:15:24;12.90;96.20
71188;DHT22;58893;53.130;8.158;2023-02-21T11:18:05;12.90;96.10
71188;DHT22;58893;53.130;8.158;2023-02-21T11:20:35;13.00;96.10
71188;DHT22;58893;53.130;8.158;2023-02-21T11:23:01;13.00;96.10
71188;DHT22;58893;53.130;8.158;2023-02-21T11:25:37;13.00;96.10
71188;DHT22;58893;53.130;8.158;2023-02-21T11:28:18;13.00;96.00
71188;DHT22;58893;53.130;8.158;2023-02-21T11:31:15;13.00;96.00
71188;DHT22;58893;53.130;8.158;2023-02-21T11:34:11;13.00;95.90
71188;DHT22;58893;53.130;8.158;2023-02-21T11:36:38;13.00;95.90
71188;DHT22;58893;53.130;8.158;2023-02-21T11:41:52;13.00;95.80
71188;DHT22;58893;53.130;8.158;2023-02-21T11:44:31;13.00;95.80
71188;DHT22;58893;53.130;8.158;2023-02-21T11:52:13;13.10;95.70
71188;DHT22;58893;53.130;8.158;2023-02-21T11:54:40;13.10;95.70
71188;DHT22;58893;53.130;8.158;2023-02-21T12:03:03;13.10;95.90
71188;DHT22;58893;53.130;8.158;2023-02-21T12:11:31;13.20;95.80
71188;DHT22;58893;53.130;8.158;2023-02-21T12:24:21;13.30;95.50
71188;DHT22;58893;53.130;8.158;2023-02-21T12:26:55;13.30;95.50
71188;DHT22;58893;53.130;8.158;2023-02-21T12:29:33;13.30;95.40
71188;DHT22;58893;53.130;8.158;2023-02-21T12:44:12;13.40;94.90
71188;DHT22;58893;53.130;8.158;2023-02-21T12:55:06;13.40;94.70
71188;DHT22;58893;53.130;8.158;2023-02-21T13:00:46;13.50;94.70
71188;DHT22;58893;53.130;8.158;2023-02-21T13:03:41;13.40;94.70
71188;DHT22;58893;53.130;8.158;2023-02-21T13:06:21;13.50;94.70
71188;DHT22;58893;53.130;8.158;2023-02-21T13:11:41;13.50;94.70
71188;DHT22;58893;53.130;8.158;2023-02-21T13:14:17;13.40;94.60
71188;DHT22;58893;53.130;8.158;2023-02-21T13:16:45;13.40;94.60
71188;DHT22;58893;53.130;8.158;2023-02-21T13:19:12;13.40;94.60
71188;DHT22;58893;53.130;8.158;2023-02-21T13:24:50;13.40;94.50
71188;DHT22;58893;53.130;8.158;2023-02-21T13:30:34;13.40;94.50
71188;DHT22;58893;53.130;8.158;2023-02-21T13:33:02;13.40;94.50
71188;DHT22;58893;53.130;8.158;2023-02-21T13:35:34;13.40;94.60
71188;DHT22;58893;53.130;8.158;2023-02-21T13:38:03;13.40;94.60
71188;DHT22;58893;53.130;8.158;2023-02-21T13:40:52;13.40;94.60
71188;DHT22;58893;53.130;8.158;2023-02-21T13:43:28;13.40;94.60
71188;DHT22;58893;53.130;8.158;2023-02-21T13:55:19;13.40;94.50
71188;DHT22;58893;53.130;8.158;2023-02-21T14:08:30;13.40;94.40
71188;DHT22;58893;53.130;8.158;2023-02-21T14:13:40;13.40;94.30
71188;DHT22;58893;53.130;8.158;2023-02-21T14:21:21;13.40;94.20
71188;DHT22;58893;53.130;8.158;2023-02-21T14:29:36;13.40;94.20
71188;DHT22;58893;53.130;8.158;2023-02-21T14:53:35;13.50;94.20
71188;DHT22;58893;53.130;8.158;2023-02-21T15:05:24;13.50;94.20
71188;DHT22;58893;53.130;8.158;2023-02-21T15:13:18;13.50;94.20
71188;DHT22;58893;53.130;8.158;2023-02-21T15:15:44;13.50;94.20
71188;DHT22;58893;53.130;8.158;2023-02-21T15:23:31;13.50;94.10
71188;DHT22;58893;53.130;8.158;2023-02-21T15:26:00;13.50;94.10
71188;DHT22;58893;53.130;8.158;2023-02-21T15:28:28;13.50;94.10
71188;DHT22;58893;53.130;8.158;2023-02-21T15:31:06;13.50;94.00
71188;DHT22;58893;53.130;8.158;2023-02-21T15:33:39;13.50;94.00
71188;DHT22;58893;53.130;8.158;2023-02-21T15:36:08;13.50;94.00
71188;DHT22;58893;53.130;8.158;2023-02-21T15:41:28;13.50;94.00
71188;DHT22;58893;53.130;8.158;2023-02-21T15:44:42;13.50;94.00
71188;DHT22;58893;53.130;8.158;2023-02-21T15:46:53;13.50;94.10
71188;DHT22;58893;53.130;8.158;2023-02-21T15:49:29;13.50;94.10
71188;DHT22;58893;53.130;8.158;2023-02-21T15:51:56;13.50;94.10
71188;DHT22;58893;53.130;8.158;2023-02-21T15:54:30;13.50;94.10
71188;DHT22;58893;53.130;8.158;2023-02-21T15:57:15;13.50;94.10
71188;DHT22;58893;53.130;8.158;2023-02-21T15:59:42;13.50;94.10
71188;DHT22;58893;53.130;8.158;2023-02-21T16:04:43;13.40;94.00
71188;DHT22;58893;53.130;8.158;2023-02-21T16:07:36;13.40;94.00
71188;DHT22;58893;53.130;8.158;2023-02-21T16:10:09;13.40;94.20
71188;DHT22;58893;53.130;8.158;2023-02-21T16:12:39;13.40;94.00
71188;DHT22;58893;53.130;8.158;2023-02-21T16:17:43;13.40;94.20
71188;DHT22;58893;53.130;8.158;2023-02-21T16:20:28;13.40;94.10
71188;DHT22;58893;53.130;8.158;2023-02-21T16:23:33;13.40;94.20
71188;DHT22;58893;53.130;8.158;2023-02-21T16:26:01;13.30;94.20
71188;DHT22;58893;53.130;8.158;2023-02-21T16:28:28;13.30;94.20
71188;DHT22;58893;53.130;8.158;2023-02-21T16:30:56;13.30;94.30
71188;DHT22;58893;53.130;8.158;2023-02-21T16:33:24;13.30;94.30
71188;DHT22;58893;53.130;8.158;2023-02-21T16:35:50;13.30;94.30
71188;DHT22;58893;53.130;8.158;2023-02-21T16:38:19;13.30;94.40
71188;DHT22;58893;53.130;8.158;2023-02-21T16:40:46;13.30;94.40
71188;DHT22;58893;53.130;8.158;2023-02-21T16:43:21;13.30;94.40
71188;DHT22;58893;53.130;8.158;2023-02-21T16:45:48;13.30;94.40
71188;DHT22;58893;53.130;8.158;2023-02-21T16:48:19;13.30;94.40
71188;DHT22;58893;53.130;8.158;2023-02-21T16:50:47;13.30;94.50
71188;DHT22;58893;53.130;8.158;2023-02-21T16:53:13;13.20;94.50
71188;DHT22;58893;53.130;8.158;2023-02-21T16:55:40;13.20;94.50
71188;DHT22;58893;53.130;8.158;2023-02-21T17:00:50;13.20;94.60
71188;DHT22;58893;53.130;8.158;2023-02-21T17:03:16;13.20;94.60
71188;DHT22;58893;53.130;8.158;2023-02-21T17:05:42;13.20;94.60
71188;DHT22;58893;53.130;8.158;2023-02-21T17:08:08;13.20;94.70
71188;DHT22;58893;53.130;8.158;2023-02-21T17:10:34;13.20;94.70
71188;DHT22;58893;53.130;8.158;2023-02-21T17:12:59;13.20;94.70
71188;DHT22;58893;53.130;8.158;2023-02-21T17:15:28;13.20;94.80
71188;DHT22;58893;53.130;8.158;2023-02-21T17:17:54;13.20;94.80
71188;DHT22;58893;53.130;8.158;2023-02-21T17:20:20;13.20;94.80
71188;DHT22;58893;53.130;8.158;2023-02-21T17:22:46;13.20;94.80
71188;DHT22;58893;53.130;8.158;2023-02-21T17:25:13;13.10;94.80
71188;DHT22;58893;53.130;8.158;2023-02-21T17:27:39;13.10;94.90
71188;DHT22;58893;53.130;8.158;2023-02-21T17:30:05;13.20;94.90
71188;DHT22;58893;53.130;8.158;2023-02-21T17:32:31;13.10;94.90
71188;DHT22;58893;53.130;8.158;2023-02-21T17:34:57;13.10;94.90
71188;DHT22;58893;53.130;8.158;2023-02-21T17:37:22;13.10;95.00
71188;DHT22;58893;53.130;8.158;2023-02-21T17:39:54;13.10;95.00
71188;DHT22;58893;53.130;8.158;2023-02-21T17:42:20;13.10;94.90
71188;DHT22;58893;53.130;8.158;2023-02-21T17:44:46;13.10;94.90
71188;DHT22;58893;53.130;8.158;2023-02-21T17:47:12;13.10;94.90
71188;DHT22;58893;53.130;8.158;2023-02-21T17:49:38;13.10;94.90
71188;DHT22;58893;53.130;8.158;2023-02-21T17:52:04;13.10;94.90
71188;DHT22;58893;53.130;8.158;2023-02-21T17:54:30;13.10;94.90
71188;DHT22;58893;53.130;8.158;2023-02-21T17:56:56;13.10;94.90
71188;DHT22;58893;53.130;8.158;2023-02-21T17:59:21;13.10;94.90
71188;DHT22;58893;53.130;8.158;2023-02-21T18:01:47;13.10;94.90
71188;DHT22;58893;53.130;8.158;2023-02-21T18:04:13;13.10;94.90
71188;DHT22;58893;53.130;8.158;2023-02-21T18:06:40;13.10;94.90
71188;DHT22;58893;53.130;8.158;2023-02-21T18:09:06;13.10;95.00
71188;DHT22;58893;53.130;8.158;2023-02-21T18:11:32;13.10;95.00
71188;DHT22;58893;53.130;8.158;2023-02-21T18:14:00;13.10;95.00
71188;DHT22;58893;53.130;8.158;2023-02-21T18:16:27;13.10;95.00
71188;DHT22;58893;53.130;8.158;2023-02-21T18:18:52;13.10;95.00
71188;DHT22;58893;53.130;8.158;2023-02-21T18:21:18;13.10;95.00
71188;DHT22;58893;53.130;8.158;2023-02-21T18:23:46;13.10;95.00
71188;DHT22;58893;53.130;8.158;2023-02-21T18:26:12;13.10;95.00
71188;DHT22;58893;53.130;8.158;2023-02-21T18:28:38;13.10;95.00
71188;DHT22;58893;53.130;8.158;2023-02-21T18:31:04;13.10;95.00
71188;DHT22;58893;53.130;8.158;2023-02-21T18:33:30;13.00;95.00
71188;DHT22;58893;53.130;8.158;2023-02-21T18:35:56;13.00;95.00
71188;DHT22;58893;53.130;8.158;2023-02-21T18:38:23;13.00;95.00
71188;DHT22;58893;53.130;8.158;2023-02-21T18:40:49;13.00;95.30
71188;DHT22;58893;53.130;8.158;2023-02-21T18:43:20;13.10;95.10
71188;DHT22;58893;53.130;8.158;2023-02-21T18:45:47;13.10;95.10
71188;DHT22;58893;53.130;8.158;2023-02-21T18:48:14;13.00;95.00
71188;DHT22;58893;53.130;8.158;2023-02-21T18:50:39;13.00;95.10
71188;DHT22;58893;53.130;8.158;2023-02-21T18:53:05;13.00;95.10
71188;DHT22;58893;53.130;8.158;2023-02-21T18:55:31;13.00;95.10
71188;DHT22;58893;53.130;8.158;2023-02-21T18:57:57;13.00;95.10
71188;DHT22;58893;53.130;8.158;2023-02-21T19:00:24;13.00;95.10
71188;DHT22;58893;53.130;8.158;2023-02-21T19:02:49;13.00;95.10
71188;DHT22;58893;53.130;8.158;2023-02-21T19:05:17;13.00;95.10
71188;DHT22;58893;53.130;8.158;2023-02-21T19:07:44;13.00;95.20
71188;DHT22;58893;53.130;8.158;2023-02-21T19:10:12;13.00;95.20
71188;DHT22;58893;53.130;8.158;2023-02-21T19:12:37;13.00;95.20
71188;DHT22;58893;53.130;8.158;2023-02-21T19:15:04;13.00;95.20
71188;DHT22;58893;53.130;8.158;2023-02-21T19:17:30;13.00;95.20
71188;DHT22;58893;53.130;8.158;2023-02-21T19:19:56;12.90;95.20
71188;DHT22;58893;53.130;8.158;2023-02-21T19:22:22;12.90;95.30
71188;DHT22;58893;53.130;8.158;2023-02-21T19:24:47;12.90;95.30